Time;durP1;ratioP1;P1;durP2;ratioP2;P2;SDS_P1;SDS_P2;PMS_P1;PMS_P2;Temp;Humidity;BMP_temperature;BMP_pressure;BME280_temperature;BME280_humidity;BME280_pressure;Samples;Min_cycle;Max_cycle;Signal;HPM_P1;HPM_P2
2021/12/10 06:35:26;;;;;;;82.40;38.25;;;;;;;0.47;100.00;97131.11;1887989;76;27896;-62
2021/12/10 06:37:53;;;;;;;74.77;32.65;;;;;;;0.42;100.00;97133.16;1855789;77;20903;-64
2021/12/10 06:40:22;;;;;;;90.20;34.00;;;;;;;0.47;100.00;97125.84;1855867;77;21106;-62
2021/12/10 06:42:50;;;;;;;1999.90;999.90;;;;;;;0.54;100.00;97128.53;1855734;77;21422;-63
2021/12/10 06:45:21;;;;;;;98.15;32.33;;;;;;;0.62;100.00;97128.62;1856190;77;20967;-59
2021/12/10 06:47:50;;;;;;;54.40;25.25;;;;;;;0.72;100.00;97133.20;1855912;77;20974;-61
2021/12/10 06:50:19;;;;;;;88.97;31.70;;;;;;;0.82;100.00;97130.67;1823693;77;20982;-64
2021/12/10 06:52:45;;;;;;;40.70;22.42;;;;;;;0.90;100.00;97128.37;1855939;77;21083;-62
2021/12/10 06:55:12;;;;;;;34.73;21.80;;;;;;;0.96;100.00;97139.27;1855743;77;20891;-61
2021/12/10 06:57:39;;;;;;;1047.38;543.45;;;;;;;1.00;100.00;97133.75;1855744;77;20904;-62
2021/12/10 07:00:20;;;;;;;35.48;21.97;;;;;;;1.04;100.00;97127.44;1856014;77;21434;-61
2021/12/10 07:02:48;;;;;;;202.40;42.95;;;;;;;1.06;100.00;97126.14;1855848;77;20927;-60
2021/12/10 07:05:15;;;;;;;1999.90;999.90;;;;;;;1.10;100.00;97122.50;1852717;77;21697;-58
2021/12/10 07:07:43;;;;;;;9.60;6.22;;;;;;;1.13;100.00;97126.73;1846387;77;20984;-62
2021/12/10 07:10:10;;;;;;;36.98;20.65;;;;;;;1.15;100.00;97127.31;1849106;77;20888;-64
2021/12/10 07:12:39;;;;;;;298.43;76.62;;;;;;;1.18;100.00;97113.59;1849114;77;20992;-60
2021/12/10 07:15:09;;;;;;;403.00;114.42;;;;;;;1.20;100.00;97120.73;1849136;77;20892;-59
2021/12/10 07:17:39;;;;;;;160.12;54.67;;;;;;;1.24;100.00;97113.92;1849582;77;21086;-62
2021/12/10 07:20:08;;;;;;;88.22;77.27;;;;;;;1.27;100.00;97110.77;1848108;77;21019;-60
2021/12/10 07:22:35;;;;;;;128.72;31.65;;;;;;;1.30;100.00;97116.06;1849547;77;20873;-61
2021/12/10 07:25:04;;;;;;;80.77;63.42;;;;;;;1.30;100.00;97120.82;1777096;80;20908;-61
2021/12/10 07:27:32;;;;;;;34.25;21.82;;;;;;;1.32;100.00;97125.84;1777148;80;21003;-63
2021/12/10 07:29:59;;;;;;;33.15;23.07;;;;;;;1.34;100.00;97126.41;1777019;80;21123;-59
2021/12/10 07:32:26;;;;;;;28.55;19.48;;;;;;;1.34;100.00;97118.49;1777136;80;20893;-58
2021/12/10 07:34:52;;;;;;;32.75;21.23;;;;;;;1.36;100.00;97117.70;1771926;80;20862;-62
2021/12/10 07:37:21;;;;;;;34.48;21.70;;;;;;;1.39;100.00;97117.18;1769085;81;20945;-63
2021/12/10 07:39:49;;;;;;;31.77;19.45;;;;;;;1.39;100.00;97115.86;1840328;78;20995;-61
2021/12/10 07:42:16;;;;;;;34.23;20.82;;;;;;;1.41;100.00;97117.75;1769293;81;21775;-59
2021/12/10 07:44:45;;;;;;;38.58;23.27;;;;;;;1.42;100.00;97124.60;1769312;81;21349;-62
2021/12/10 07:47:14;;;;;;;43.78;22.93;;;;;;;1.46;100.00;97124.91;1768711;81;20920;-63
2021/12/10 07:49:42;;;;;;;35.15;22.85;;;;;;;1.44;100.00;97130.42;1768197;81;21467;-59
2021/12/10 07:52:16;;;;;;;35.58;20.85;;;;;;;1.47;100.00;97136.52;1768140;80;20960;-61
2021/12/10 07:54:38;;;;;;;35.98;23.65;;;;;;;1.48;100.00;97132.05;1767595;81;21866;-63
2021/12/10 07:57:06;;;;;;;42.58;25.43;;;;;;;1.48;100.00;97136.80;1768441;81;20905;-61
2021/12/10 07:59:35;;;;;;;35.60;23.95;;;;;;;1.49;100.00;97144.17;1768590;81;20897;-60
2021/12/10 08:02:03;;;;;;;39.20;23.18;;;;;;;1.47;100.00;97146.27;1839518;78;21340;-62
2021/12/10 08:04:31;;;;;;;35.40;24.67;;;;;;;1.46;100.00;97149.98;1838739;78;21643;-59
2021/12/10 08:06:57;;;;;;;40.28;23.90;;;;;;;1.44;100.00;97159.45;1839342;78;21106;-59
2021/12/10 08:09:25;;;;;;;32.33;20.08;;;;;;;1.44;100.00;97159.99;1839911;78;20885;-65
2021/12/10 08:11:53;;;;;;;24.63;18.50;;;;;;;1.44;100.00;97152.08;1839577;78;20869;-66
2021/12/10 08:14:21;;;;;;;26.82;19.62;;;;;;;1.47;100.00;97160.27;1738162;81;20925;-63
2021/12/10 08:16:49;;;;;;;35.28;20.95;;;;;;;1.48;100.00;97165.03;1768648;81;20924;-60
2021/12/10 08:19:17;;;;;;;35.38;21.33;;;;;;;1.51;100.00;97163.98;1839474;78;21130;-60
2021/12/10 08:21:46;;;;;;;27.37;19.12;;;;;;;1.53;100.00;97161.12;1768812;81;21289;-67
2021/12/10 08:24:14;;;;;;;28.45;19.07;;;;;;;1.53;100.00;97153.97;1768348;81;21423;-60
2021/12/10 08:26:40;;;;;;;35.48;19.42;;;;;;;1.55;100.00;97153.73;1839941;78;20920;-61
2021/12/10 08:29:08;;;;;;;40.85;21.60;;;;;;;1.57;100.00;97154.27;1839703;78;21221;-59
2021/12/10 08:31:34;;;;;;;30.80;20.30;;;;;;;1.57;100.00;97145.84;1839997;78;21100;-59
2021/12/10 08:34:01;;;;;;;36.55;22.20;;;;;;;1.61;100.00;97147.44;1766101;81;21511;-58
2021/12/10 08:36:29;;;;;;;33.83;21.45;;;;;;;1.64;100.00;97150.90;1769170;81;20940;-62
2021/12/10 08:38:56;;;;;;;38.15;23.02;;;;;;;1.65;100.00;97144.58;1769170;80;20936;-59
2021/12/10 08:41:27;;;;;;;38.17;21.85;;;;;;;1.66;100.00;97137.72;1769705;80;20961;-62
2021/12/10 08:43:56;;;;;;;40.55;23.77;;;;;;;1.70;100.00;97131.39;1769549;81;21257;-63
2021/12/10 08:46:25;;;;;;;37.63;23.00;;;;;;;1.71;100.00;97130.35;1830652;78;20956;-64
2021/12/10 08:48:52;;;;;;;40.40;22.58;;;;;;;1.70;100.00;97134.83;1760219;81;21457;-62
2021/12/10 08:51:25;;;;;;;45.12;23.65;;;;;;;1.70;100.00;97128.75;1769653;81;20988;-63
2021/12/10 08:53:52;;;;;;;45.92;25.57;;;;;;;1.68;100.00;97131.66;1770010;80;20941;-65
2021/12/10 08:56:24;;;;;;;35.28;22.58;;;;;;;1.67;100.00;97134.56;1758264;81;21151;-60
2021/12/10 08:58:51;;;;;;;31.30;20.68;;;;;;;1.67;100.00;97134.02;1769628;81;20948;-59
2021/12/10 09:01:24;;;;;;;31.02;20.00;;;;;;;1.68;100.00;97139.58;1759969;81;21473;-64
2021/12/10 09:03:54;;;;;;;27.02;18.80;;;;;;;1.67;100.00;97131.38;1769856;81;21050;-63
2021/12/10 09:06:25;;;;;;;28.60;19.12;;;;;;;1.70;100.00;97124.79;1760188;81;20918;-64
2021/12/10 09:08:52;;;;;;;27.25;17.40;;;;;;;1.72;100.00;97125.36;1769095;81;21507;-60
2021/12/10 09:11:19;;;;;;;30.25;19.20;;;;;;;1.76;100.00;97113.23;1758800;81;21103;-59
2021/12/10 09:13:45;;;;;;;27.70;17.52;;;;;;;1.77;100.00;97109.52;1768159;81;21103;-61
2021/12/10 09:16:21;;;;;;;26.10;19.12;;;;;;;1.79;100.00;97112.73;1767965;81;21028;-61
2021/12/10 09:18:44;;;;;;;25.72;16.82;;;;;;;1.82;100.00;97114.83;1758113;81;21186;-59
2021/12/10 09:21:11;;;;;;;25.10;16.90;;;;;;;1.86;100.00;97106.70;1768585;81;21543;-58
2021/12/10 09:23:39;;;;;;;23.50;16.65;;;;;;;1.85;100.00;97101.94;1759483;81;20979;-60
2021/12/10 09:26:10;;;;;;;24.37;16.35;;;;;;;1.83;100.00;97100.08;1769936;81;20854;-65
2021/12/10 09:28:37;;;;;;;27.85;16.95;;;;;;;1.84;100.00;97096.89;1830941;78;21073;-59
2021/12/10 09:31:06;;;;;;;23.62;16.95;;;;;;;1.86;100.00;97088.20;1830846;78;20889;-59
2021/12/10 09:33:32;;;;;;;26.82;18.20;;;;;;;1.89;100.00;97074.47;1831074;78;21077;-64
2021/12/10 09:36:00;;;;;;;23.62;15.68;;;;;;;1.90;100.00;97076.88;1838331;78;20955;-62
2021/12/10 09:38:26;;;;;;;25.00;16.55;;;;;;;1.92;100.00;97074.77;1839647;78;21454;-62
2021/12/10 09:41:02;;;;;;;27.95;18.62;;;;;;;1.94;100.00;97070.54;1839485;78;20888;-63
2021/12/10 09:43:31;;;;;;;27.02;18.80;;;;;;;1.95;100.00;97072.14;1768236;81;21120;-62
2021/12/10 09:45:57;;;;;;;22.07;15.90;;;;;;;1.95;100.00;97065.54;1838406;78;21116;-61
2021/12/10 09:48:24;;;;;;;26.00;15.68;;;;;;;1.97;100.00;97069.52;1839185;78;20912;-60
2021/12/10 09:50:59;;;;;;;21.42;16.12;;;;;;;2.00;100.00;97064.25;1838994;78;20937;-60
2021/12/10 09:53:27;;;;;;;21.23;15.20;;;;;;;2.04;100.00;97068.75;1768777;81;20904;-63
2021/12/10 09:55:55;;;;;;;22.13;15.28;;;;;;;2.07;100.00;97058.20;1768196;81;21408;-64
2021/12/10 09:58:22;;;;;;;21.48;14.23;;;;;;;2.08;100.00;97046.56;1839711;78;22474;-64
2021/12/10 10:01:04;;;;;;;20.17;13.90;;;;;;;2.08;100.00;97044.72;1740295;80;21065;-62
2021/12/10 10:03:35;;;;;;;25.82;15.85;;;;;;;2.12;100.00;97038.38;1851395;77;20959;-62
2021/12/10 10:06:02;;;;;;;22.75;16.15;;;;;;;2.16;100.00;97043.95;1837977;77;20995;-62
2021/12/10 10:08:29;;;;;;;20.62;15.23;;;;;;;2.17;100.00;97037.08;1836605;77;21411;-62
2021/12/10 10:11:01;;;;;;;20.30;14.13;;;;;;;2.21;100.00;97022.32;1840437;77;21103;-60
2021/12/10 10:13:34;;;;;;;25.30;14.10;;;;;;;2.25;100.00;97022.06;1828255;77;20915;-64
2021/12/10 10:16:01;;;;;;;26.80;15.60;;;;;;;2.27;100.00;97042.41;1833869;77;20968;-64
2021/12/10 10:18:30;;;;;;;25.60;16.93;;;;;;;2.26;100.00;97039.48;1834912;77;20994;-65
2021/12/10 10:21:02;;;;;;;32.17;17.00;;;;;;;2.25;100.00;97040.55;1840651;77;20939;-60
2021/12/10 10:23:29;;;;;;;25.08;15.58;;;;;;;2.27;100.00;97029.72;1835725;77;21824;-66
2021/12/10 10:26:00;;;;;;;24.60;15.93;;;;;;;2.28;100.00;97031.31;1852088;77;21451;-66
2021/12/10 10:28:29;;;;;;;30.37;16.62;;;;;;;2.28;100.00;97034.76;1839229;77;20978;-63
2021/12/10 10:31:03;;;;;;;22.85;15.70;;;;;;;2.29;100.00;97033.69;1839627;77;20964;-64
2021/12/10 10:33:36;;;;;;;23.35;14.85;;;;;;;2.33;100.00;97033.98;1847260;77;21481;-62
2021/12/10 10:36:11;;;;;;;23.62;14.65;;;;;;;2.33;100.00;97024.73;1832113;77;21121;-62
2021/12/10 10:38:38;;;;;;;26.23;15.80;;;;;;;2.34;100.00;97021.81;1829822;77;21103;-63
2021/12/10 10:41:09;;;;;;;22.00;13.80;;;;;;;2.36;100.00;97007.80;1820441;77;21416;-65
2021/12/10 10:43:37;;;;;;;21.23;13.10;;;;;;;2.36;100.00;97010.45;1825725;77;20837;-60
2021/12/10 10:46:05;;;;;;;20.10;13.75;;;;;;;2.36;100.00;97014.41;1831520;77;20885;-60
2021/12/10 10:48:33;;;;;;;23.92;14.73;;;;;;;2.35;100.00;97018.13;1839415;77;21801;-60
2021/12/10 10:51:08;;;;;;;20.85;14.50;;;;;;;2.32;100.00;97012.03;1833433;77;20912;-63
2021/12/10 10:53:44;;;;;;;26.05;14.95;;;;;;;2.31;100.00;96999.86;1830018;77;20957;-64
2021/12/10 10:56:20;;;;;;;18.25;13.13;;;;;;;2.29;100.00;96996.69;1819255;77;20994;-63
2021/12/10 10:58:54;;;;;;;16.20;11.30;;;;;;;2.31;100.00;96995.90;1821955;77;20948;-63
2021/12/10 11:01:28;;;;;;;19.40;12.23;;;;;;;2.32;100.00;96992.22;1831087;77;21100;-59
2021/12/10 11:04:01;;;;;;;19.85;12.93;;;;;;;2.31;100.00;96998.54;1826776;77;21380;-59
2021/12/10 11:06:38;;;;;;;21.70;14.18;;;;;;;2.31;100.00;96994.58;1819676;77;20927;-63
2021/12/10 11:09:14;;;;;;;16.85;11.85;;;;;;;2.34;100.00;96983.49;1818173;77;20883;-62
2021/12/10 11:11:53;;;;;;;15.28;10.98;;;;;;;2.41;100.00;96986.67;1818537;77;20979;-65
2021/12/10 11:14:23;;;;;;;12.93;9.85;;;;;;;2.47;100.00;96982.97;1842397;77;21077;-64
2021/12/10 11:16:54;;;;;;;14.07;10.03;;;;;;;2.54;100.00;96975.58;1839538;77;21435;-62
2021/12/10 11:19:24;;;;;;;18.10;11.60;;;;;;;2.60;100.00;96971.89;1839099;77;21256;-63
2021/12/10 11:22:12;;;;;;;13.60;10.40;;;;;;;2.70;100.00;96978.52;1837762;77;21061;-63
2021/12/10 11:24:45;;;;;;;13.28;9.83;;;;;;;2.81;100.00;96982.46;1843060;77;20983;-61
2021/12/10 11:27:25;;;;;;;15.83;11.40;;;;;;;2.89;100.00;96992.53;1839524;77;21722;-63
2021/12/10 11:30:13;;;;;;;15.83;11.15;;;;;;;2.90;100.00;96980.91;1841547;77;21344;-63
2021/12/10 11:32:52;;;;;;;16.45;11.30;;;;;;;2.91;100.00;96985.12;1843552;77;20973;-60
2021/12/10 11:35:32;;;;;;;17.37;11.80;;;;;;;2.93;100.00;96983.80;1846432;77;20923;-63
2021/12/10 11:38:10;;;;;;;14.53;10.23;;;;;;;2.93;100.00;96983.80;1841786;77;20889;-64
2021/12/10 11:41:09;;;;;;;14.83;10.85;;;;;;;2.93;100.00;96975.05;1843383;77;21068;-63
2021/12/10 11:44:17;;;;;;;16.87;10.88;;;;;;;2.95;100.00;96982.19;1858523;77;20903;-63
2021/12/10 11:46:48;;;;;;;16.05;12.13;;;;;;;2.98;100.00;96971.89;1856470;77;20907;-62
2021/12/10 11:49:27;;;;;;;17.27;11.73;;;;;;;3.01;100.00;96977.18;1856480;77;20899;-60
2021/12/10 11:52:05;;;;;;;14.03;10.63;;;;;;;3.06;100.00;96966.59;1858392;77;20879;-60
2021/12/10 11:54:38;;;;;;;19.52;12.25;;;;;;;3.10;100.00;96961.03;1858459;77;21434;-62
2021/12/10 11:57:21;;;;;;;16.82;11.95;;;;;;;3.15;100.00;96959.70;1858322;77;20875;-62
2021/12/10 12:00:17;;;;;;;17.87;11.93;;;;;;;3.19;100.00;96958.09;1848310;77;21439;-64
2021/12/10 12:02:54;;;;;;;15.78;11.25;;;;;;;3.21;100.00;96937.45;1858617;77;20914;-60
2021/12/10 12:05:25;;;;;;;14.58;11.00;;;;;;;3.23;100.00;96947.23;1857937;77;20939;-60
2021/12/10 12:07:54;;;;;;;15.15;10.35;;;;;;;3.23;100.00;96948.55;1857907;77;21072;-62
2021/12/10 12:10:36;;;;;;;15.00;10.68;;;;;;;3.25;100.00;96954.39;1856525;77;20945;-61
2021/12/10 12:13:20;;;;;;;14.90;11.15;;;;;;;3.26;100.00;96933.47;1857183;77;20960;-65
2021/12/10 12:15:48;;;;;;;15.75;10.70;;;;;;;3.28;100.00;96933.98;1856236;77;20966;-64
2021/12/10 12:18:26;;;;;;;13.22;9.78;;;;;;;3.28;100.00;96924.73;1840149;77;20903;-62
2021/12/10 12:21:37;;;;;;;14.65;10.35;;;;;;;3.30;100.00;96918.62;1857625;77;21264;-64
2021/12/10 12:26:23;;;;;;;14.38;10.90;;;;;;;3.36;100.00;96920.22;1772514;78;21497;-58
2021/12/10 12:28:56;;;;;;;18.95;10.93;;;;;;;3.39;100.00;96918.36;1824434;78;21054;-59
2021/12/10 12:31:30;;;;;;;15.48;10.60;;;;;;;3.41;100.00;96909.06;1857716;77;20894;-63
2021/12/10 12:34:07;;;;;;;12.90;9.75;;;;;;;3.40;100.00;96905.38;1858681;77;21073;-58
2021/12/10 12:37:00;;;;;;;13.03;9.60;;;;;;;3.41;100.00;96899.02;1856228;77;20836;-58
2021/12/10 12:39:41;;;;;;;11.93;9.28;;;;;;;3.41;100.00;96910.94;1853993;77;20986;-64
2021/12/10 12:42:31;;;;;;;13.90;11.05;;;;;;;3.34;100.00;96898.52;1833720;77;21101;-59
2021/12/10 12:45:11;;;;;;;14.87;11.22;;;;;;;3.32;100.00;96902.74;1838254;77;20967;-62
2021/12/10 12:47:40;;;;;;;18.98;13.35;;;;;;;3.27;100.00;96907.28;1834284;77;21155;-61
2021/12/10 12:50:22;;;;;;;12.90;10.58;;;;;;;3.21;100.00;96899.87;1835015;77;21412;-61
2021/12/10 12:53:01;;;;;;;18.02;11.15;;;;;;;3.16;100.00;96897.23;1832253;77;20943;-60
2021/12/10 12:55:48;;;;;;;16.35;11.40;;;;;;;3.14;100.00;96903.86;1841505;77;21050;-61
2021/12/10 12:58:48;;;;;;;15.65;11.08;;;;;;;3.12;100.00;96915.25;1843988;77;21387;-63
